Time;durP1;ratioP1;P1;durP2;ratioP2;P2;SDS_P1;SDS_P2;PMS_P1;PMS_P2;Temp;Humidity;BMP_temperature;BMP_pressure;BME280_temperature;BME280_humidity;BME280_pressure;Samples;Min_cycle;Max_cycle;Signal;HPM_P1;HPM_P2
2021/12/05 00:23:04;;;;;;;;;;;;;;;6.61;81.23;99456.81;5003022;28;19930;-80
2021/12/05 00:25:33;;;;;;;;;;;;;;;6.60;81.17;99457.78;5055287;28;19924;-80
2021/12/05 00:28:21;;;;;;;;;;;;;;;6.56;81.97;99451.88;5057192;28;20312;-80
2021/12/05 00:31:12;;;;;;;;;;;;;;;6.55;81.58;99455.47;5058021;28;19932;-81
2021/12/05 00:33:50;;;;;;;;;;;;;;;6.57;81.69;99458.03;5054031;28;19929;-80
2021/12/05 00:42:01;;;;;;;;;;;;;;;6.55;81.35;99458.13;5039477;28;19928;-81
2021/12/05 00:47:28;;;;;;;;;;;;;;;6.55;81.45;99452.81;5057551;28;19970;-80
2021/12/05 00:50:17;;;;;;;;;;;;;;;6.56;81.58;99443.09;5057888;28;19928;-80
2021/12/05 00:55:41;;;;;;;;;;;;;;;6.62;82.66;99445.25;5035369;28;20264;-80
2021/12/05 01:07:19;;;;;;;;;;;;;;;6.49;82.37;99442.69;5058097;28;20616;-80
2021/12/05 01:09:52;;;;;;;;;;;;;;;6.48;81.97;99449.00;5090283;28;20303;-81
2021/12/05 01:15:01;;;;;;;;;;;;;;;6.51;82.24;99448.72;5102906;28;19981;-80
2021/12/05 01:17:34;;;;;;;;;;;;;;;6.53;82.02;99444.16;5103345;28;19928;-80
2021/12/05 01:20:03;;;;;;;;;;;;;;;6.55;82.21;99444.88;5099736;28;20504;-80
2021/12/05 01:22:33;;;;;;;;;;;;;;;6.56;81.83;99446.56;5098618;28;19951;-80
2021/12/05 01:25:07;;;;;;;;;;;;;;;6.57;81.70;99450.94;5099668;28;19985;-80
2021/12/05 01:27:40;;;;;;;;;;;;;;;6.58;81.76;99438.50;5100283;28;19935;-81
2021/12/05 01:30:13;;;;;;;;;;;;;;;6.59;82.66;99446.34;5099924;28;19932;-80
2021/12/05 01:32:54;;;;;;;;;;;;;;;6.59;82.06;99445.47;5103533;28;20299;-81
2021/12/05 01:35:32;;;;;;;;;;;;;;;6.53;81.60;99446.81;5101738;28;19924;-80
2021/12/05 01:38:07;;;;;;;;;;;;;;;6.52;81.89;99453.09;5103909;28;19931;-80
2021/12/05 01:41:03;;;;;;;;;;;;;;;6.48;81.45;99445.47;5100004;28;20631;-80
2021/12/05 01:49:33;;;;;;;;;;;;;;;6.48;82.86;99442.81;5056972;28;20355;-81
2021/12/05 01:52:35;;;;;;;;;;;;;;;6.51;82.35;99437.28;5099771;28;20485;-80
2021/12/05 01:58:03;;;;;;;;;;;;;;;6.54;82.99;99439.72;5103022;28;20373;-81
2021/12/05 02:01:03;;;;;;;;;;;;;;;6.57;82.99;99452.72;5106961;27;19928;-81
2021/12/05 02:09:19;;;;;;;;;;;;;;;6.51;82.47;99446.06;5143783;27;19931;-80
2021/12/05 02:31:09;;;;;;;;;;;;;;;6.46;83.81;99442.09;5123190;27;19945;-80
2021/12/05 02:34:04;;;;;;;;;;;;;;;6.45;83.66;99443.06;5126502;27;19931;-80
2021/12/05 02:39:37;;;;;;;;;;;;;;;6.43;83.98;99448.50;5115578;27;20053;-80
2021/12/05 02:42:10;;;;;;;;;;;;;;;6.40;83.76;99444.28;5122158;27;19931;-80
2021/12/05 02:44:38;;;;;;;;;;;;;;;6.36;83.36;99440.16;5123908;27;19935;-80
2021/12/05 02:47:07;;;;;;;;;;;;;;;6.34;84.43;99450.03;5126646;27;20010;-81
2021/12/05 02:49:35;;;;;;;;;;;;;;;6.32;84.26;99445.81;5124791;27;20018;-80
2021/12/05 02:52:06;;;;;;;;;;;;;;;6.31;84.36;99444.97;5130139;27;19976;-81
2021/12/05 02:54:38;;;;;;;;;;;;;;;6.32;84.38;99436.03;5125371;27;19978;-80
2021/12/05 02:57:05;;;;;;;;;;;;;;;6.23;84.51;99432.31;5126774;27;19987;-80
2021/12/05 02:59:42;;;;;;;;;;;;;;;6.20;84.98;99439.66;5124741;27;19913;-80
2021/12/05 03:02:12;;;;;;;;;;;;;;;6.18;84.84;99438.94;5125086;27;19931;-81
2021/12/05 03:04:41;;;;;;;;;;;;;;;6.19;84.52;99440.59;5125605;27;19924;-80
2021/12/05 03:07:10;;;;;;;;;;;;;;;6.15;84.71;99440.00;5129157;27;19927;-81
2021/12/05 03:09:39;;;;;;;;;;;;;;;6.18;85.16;99441.59;5126369;27;19932;-81
2021/12/05 03:12:07;;;;;;;;;;;;;;;6.15;84.93;99440.00;5126270;27;20421;-81
2021/12/05 03:14:34;;;;;;;;;;;;;;;6.15;85.05;99432.03;5124861;27;19947;-80
2021/12/05 03:17:00;;;;;;;;;;;;;;;6.19;84.98;99443.25;5128545;27;19974;-81
2021/12/05 03:19:27;;;;;;;;;;;;;;;6.14;84.73;99433.00;5123856;27;20517;-81
2021/12/05 03:21:54;;;;;;;;;;;;;;;6.13;84.93;99435.78;5126277;27;19927;-80
2021/12/05 03:24:21;;;;;;;;;;;;;;;6.14;84.77;99430.38;5123519;27;20309;-79
2021/12/05 03:26:51;;;;;;;;;;;;;;;6.11;84.95;99435.88;5126375;27;19927;-80
2021/12/05 03:29:18;;;;;;;;;;;;;;;6.14;84.72;99433.00;5126093;27;20007;-83
2021/12/05 03:31:45;;;;;;;;;;;;;;;6.19;85.08;99435.31;5130960;27;19967;-83
2021/12/05 03:34:14;;;;;;;;;;;;;;;6.15;85.26;99432.03;5128015;27;19932;-84
2021/12/05 03:36:43;;;;;;;;;;;;;;;6.13;85.47;99441.06;5128982;27;20006;-84
2021/12/05 03:39:10;;;;;;;;;;;;;;;6.12;85.21;99442.03;5129677;27;20435;-84
2021/12/05 03:41:36;;;;;;;;;;;;;;;6.11;85.31;99443.84;5131184;27;20567;-83
2021/12/05 03:44:05;;;;;;;;;;;;;;;6.14;85.41;99442.75;5131970;27;20085;-83
2021/12/05 03:46:33;;;;;;;;;;;;;;;6.17;85.14;99443.38;5128300;27;20398;-83
2021/12/05 03:49:08;;;;;;;;;;;;;;;6.16;84.80;99444.34;5127627;27;19935;-83
2021/12/05 03:51:36;;;;;;;;;;;;;;;6.15;85.34;99450.59;5126271;27;20022;-83
2021/12/05 03:54:03;;;;;;;;;;;;;;;6.14;85.25;99454.22;5126581;27;20042;-82
2021/12/05 03:56:30;;;;;;;;;;;;;;;6.11;85.51;99459.75;5132197;27;19930;-83
2021/12/05 03:58:56;;;;;;;;;;;;;;;6.13;85.55;99457.81;5129508;27;19932;-82
2021/12/05 04:01:25;;;;;;;;;;;;;;;6.13;85.53;99462.28;5127647;27;19935;-83
2021/12/05 04:03:53;;;;;;;;;;;;;;;6.10;85.65;99462.50;5130935;27;19984;-82
2021/12/05 04:06:21;;;;;;;;;;;;;;;6.10;85.68;99459.84;5126363;27;19932;-83
2021/12/05 04:08:48;;;;;;;;;;;;;;;6.06;85.20;99461.88;5130263;27;19977;-83
2021/12/05 04:11:17;;;;;;;;;;;;;;;6.01;85.53;99477.31;5129890;27;20355;-84
2021/12/05 04:13:46;;;;;;;;;;;;;;;5.98;85.47;99467.78;5129515;27;19931;-84
2021/12/05 04:16:14;;;;;;;;;;;;;;;5.95;85.71;99467.13;5131409;27;19984;-83
2021/12/05 04:18:44;;;;;;;;;;;;;;;5.96;85.71;99466.22;5134193;27;20440;-84
2021/12/05 04:21:11;;;;;;;;;;;;;;;5.96;85.64;99468.84;5132103;27;19931;-85
2021/12/05 04:23:37;;;;;;;;;;;;;;;5.97;85.80;99468.75;5130623;27;19927;-83
2021/12/05 04:26:04;;;;;;;;;;;;;;;6.03;86.00;99472.75;5132025;27;19959;-84
2021/12/05 04:28:31;;;;;;;;;;;;;;;6.03;85.81;99465.63;5129565;27;19924;-83
2021/12/05 04:30:57;;;;;;;;;;;;;;;6.08;85.88;99464.44;5130868;27;19948;-82
2021/12/05 04:33:24;;;;;;;;;;;;;;;6.09;86.00;99466.97;5130593;27;20366;-83
2021/12/05 04:35:52;;;;;;;;;;;;;;;6.11;85.77;99469.50;5130002;27;19931;-83
2021/12/05 04:38:19;;;;;;;;;;;;;;;6.07;85.53;99468.06;5131331;27;19932;-83
2021/12/05 04:40:47;;;;;;;;;;;;;;;6.08;86.08;99472.38;5132900;27;19927;-83
2021/12/05 04:43:13;;;;;;;;;;;;;;;6.06;85.86;99467.19;5131302;27;19947;-84
2021/12/05 04:45:40;;;;;;;;;;;;;;;6.02;85.49;99474.53;5130654;27;20022;-83
2021/12/05 04:48:07;;;;;;;;;;;;;;;6.01;85.32;99472.03;5128889;27;20037;-84
2021/12/05 04:50:34;;;;;;;;;;;;;;;6.02;85.72;99473.69;5132728;27;19963;-83
2021/12/05 04:53:03;;;;;;;;;;;;;;;6.03;85.75;99478.88;5131479;27;19933;-83
2021/12/05 04:55:30;;;;;;;;;;;;;;;6.02;85.72;99476.34;5129683;27;19928;-84
2021/12/05 04:57:57;;;;;;;;;;;;;;;6.04;85.47;99482.38;5131069;27;19934;-83
2021/12/05 05:00:25;;;;;;;;;;;;;;;6.04;85.60;99485.84;5126730;28;20022;-84
2021/12/05 05:02:52;;;;;;;;;;;;;;;6.07;86.04;99486.63;5129319;28;19939;-83
2021/12/05 05:05:19;;;;;;;;;;;;;;;6.05;85.75;99489.38;5130314;27;20389;-86
2021/12/05 05:07:46;;;;;;;;;;;;;;;6.06;85.79;99490.22;5129694;28;19924;-85
2021/12/05 05:10:17;;;;;;;;;;;;;;;6.04;85.77;99493.81;5130109;28;19933;-83
2021/12/05 05:12:47;;;;;;;;;;;;;;;6.00;85.57;99497.66;5131230;28;19982;-83
2021/12/05 05:15:15;;;;;;;;;;;;;;;6.01;85.94;99498.53;5124484;28;19932;-83
2021/12/05 05:17:44;;;;;;;;;;;;;;;6.00;85.87;99504.75;5130481;28;19932;-83
2021/12/05 05:20:21;;;;;;;;;;;;;;;5.98;86.05;99502.22;5129313;27;20474;-84
2021/12/05 05:23:00;;;;;;;;;;;;;;;6.01;86.19;99519.72;5130507;27;20371;-85
2021/12/05 05:26:09;;;;;;;;;;;;;;;6.03;86.22;99513.34;5127492;27;19928;-83
2021/12/05 05:28:51;;;;;;;;;;;;;;;6.07;86.02;99518.41;5127949;27;19927;-83
2021/12/05 05:47:50;;;;;;;;;;;;;;;6.12;86.18;99519.78;5116938;27;20286;-83
2021/12/05 05:50:18;;;;;;;;;;;;;;;6.15;86.30;99519.53;5128190;27;19952;-84
2021/12/05 05:52:44;;;;;;;;;;;;;;;6.18;86.26;99529.91;5131506;27;19927;-83
2021/12/05 05:55:12;;;;;;;;;;;;;;;6.19;86.27;99523.63;5129844;27;19957;-84
2021/12/05 05:57:44;;;;;;;;;;;;;;;6.20;85.75;99532.44;5129247;27;19945;-83
2021/12/05 06:00:15;;;;;;;;;;;;;;;6.20;86.03;99535.09;5128907;27;19928;-84
2021/12/05 06:05:28;;;;;;;;;;;;;;;6.21;86.13;99539.41;5131671;27;19934;-83
2021/12/05 06:07:54;;;;;;;;;;;;;;;6.23;86.40;99548.97;5131835;27;19928;-84
2021/12/05 06:10:21;;;;;;;;;;;;;;;6.25;86.04;99540.88;5129299;27;19923;-84
2021/12/05 06:12:50;;;;;;;;;;;;;;;6.23;86.46;99538.38;5130463;27;20346;-84
2021/12/05 06:15:17;;;;;;;;;;;;;;;6.26;86.11;99550.53;5127885;27;19934;-84
2021/12/05 06:17:44;;;;;;;;;;;;;;;6.26;86.18;99550.53;5128780;27;19938;-84
2021/12/05 06:20:13;;;;;;;;;;;;;;;6.23;85.55;99556.91;5133068;27;20355;-84
2021/12/05 06:22:40;;;;;;;;;;;;;;;6.23;85.82;99556.91;5129791;27;20013;-83
2021/12/05 06:25:10;;;;;;;;;;;;;;;6.22;86.02;99563.16;5130049;27;19928;-84
2021/12/05 06:27:37;;;;;;;;;;;;;;;6.24;86.20;99571.84;5130389;27;19927;-84
2021/12/05 06:30:10;;;;;;;;;;;;;;;6.22;85.68;99564.97;5131321;27;20026;-83
2021/12/05 06:38:12;;;;;;;;;;;;;;;6.12;85.96;99567.47;5129645;27;19935;-84
2021/12/05 06:46:21;;;;;;;;;;;;;;;6.13;85.96;99581.56;5131161;27;19930;-83
2021/12/05 06:48:49;;;;;;;;;;;;;;;6.13;86.08;99582.41;5127852;27;19931;-85
2021/12/05 06:51:16;;;;;;;;;;;;;;;6.14;86.26;99585.91;5132668;27;19938;-84
2021/12/05 06:53:43;;;;;;;;;;;;;;;6.14;86.28;99588.53;5129067;27;19927;-83
2021/12/05 06:56:09;;;;;;;;;;;;;;;6.11;86.31;99589.63;5131900;27;20018;-83
2021/12/05 06:58:36;;;;;;;;;;;;;;;6.11;86.36;99594.09;5128565;27;19996;-83
2021/12/05 07:01:05;;;;;;;;;;;;;;;6.13;86.33;99600.97;5126842;27;20024;-82
2021/12/05 07:03:33;;;;;;;;;;;;;;;6.13;86.20;99600.97;5131325;27;20378;-86
2021/12/05 07:06:03;;;;;;;;;;;;;;;6.14;86.08;99607.97;5130130;27;20325;-84
2021/12/05 07:08:33;;;;;;;;;;;;;;;6.15;86.27;99609.66;5127718;27;19928;-84
2021/12/05 07:11:04;;;;;;;;;;;;;;;6.19;86.55;99610.28;5127904;27;20585;-84
2021/12/05 07:14:08;;;;;;;;;;;;;;;6.17;85.72;99613.03;5130978;27;19928;-83
2021/12/05 07:16:40;;;;;;;;;;;;;;;6.17;85.91;99620.97;5131670;27;19927;-84
2021/12/05 07:19:23;;;;;;;;;;;;;;;6.16;86.59;99629.03;5131904;27;19927;-84
2021/12/05 07:21:53;;;;;;;;;;;;;;;6.13;85.93;99629.28;5130415;27;20363;-83
2021/12/05 07:24:34;;;;;;;;;;;;;;;6.12;86.34;99628.44;5128478;27;19924;-84
2021/12/05 07:40:20;;;;;;;;;;;;;;;6.12;86.21;99639.06;5129372;27;20464;-83
2021/12/05 07:41:06;;;;;;;;;;;;;;;6.07;86.47;99654.44;5127752;27;19953;-83
2021/12/05 07:43:33;;;;;;;;;;;;;;;6.09;86.63;99654.31;5130223;27;19951;-83
2021/12/05 07:46:06;;;;;;;;;;;;;;;6.12;86.52;99662.03;5128057;27;19928;-83
2021/12/05 07:48:35;;;;;;;;;;;;;;;6.13;86.23;99658.44;5130025;27;19923;-83
2021/12/05 07:51:09;;;;;;;;;;;;;;;6.07;86.44;99667.69;5131843;27;19948;-83
2021/12/05 07:53:44;;;;;;;;;;;;;;;5.99;86.16;99678.84;5128620;27;19927;-84
2021/12/05 07:56:15;;;;;;;;;;;;;;;5.98;86.44;99676.28;5130221;27;19924;-84
2021/12/05 07:59:07;;;;;;;;;;;;;;;5.96;86.71;99679.06;5131614;27;19946;-83
2021/12/05 08:15:21;;;;;;;;;;;;;;;5.91;86.59;99702.34;5129379;27;19967;-81
2021/12/05 08:17:53;;;;;;;;;;;;;;;5.87;86.55;99698.22;5132229;27;20023;-83
2021/12/05 08:20:21;;;;;;;;;;;;;;;5.89;86.95;99706.91;5129261;27;19928;-84
2021/12/05 08:22:49;;;;;;;;;;;;;;;5.91;86.62;99707.63;5132507;27;20377;-83
2021/12/05 08:25:20;;;;;;;;;;;;;;;5.93;86.88;99711.03;5128044;27;20275;-83
2021/12/05 08:27:50;;;;;;;;;;;;;;;5.94;86.86;99707.44;5129757;27;19928;-83
2021/12/05 08:30:24;;;;;;;;;;;;;;;5.97;86.92;99720.50;5127946;27;19998;-84
2021/12/05 08:33:10;;;;;;;;;;;;;;;5.96;86.83;99718.81;5131426;27;20685;-84
2021/12/05 08:42:00;;;;;;;;;;;;;;;6.00;86.69;99722.09;5122695;28;19924;-83
2021/12/05 09:40:26;;;;;;;;;;;;;;;6.12;87.19;99813.13;5094528;28;19988;-83
2021/12/05 09:51:44;;;;;;;;;;;;;;;6.23;86.82;99826.50;5090020;28;19934;-81
2021/12/05 10:10:48;;;;;;;;;;;;;;;6.41;87.40;99854.38;5057816;28;20185;-82
2021/12/05 10:13:22;;;;;;;;;;;;;;;6.52;87.72;99858.94;5086627;28;19977;-82
2021/12/05 10:16:00;;;;;;;;;;;;;;;6.60;87.85;99858.38;5080566;28;19928;-82
2021/12/05 10:35:30;;;;;;;;;;;;;;;7.04;86.55;99878.22;5087286;28;20020;-82
2021/12/05 10:38:02;;;;;;;;;;;;;;;7.02;87.04;99880.13;5074071;28;19924;-82
2021/12/05 10:40:35;;;;;;;;;;;;;;;7.03;86.24;99879.19;5070811;28;20389;-82
2021/12/05 10:43:03;;;;;;;;;;;;;;;7.07;87.43;99888.63;5075070;28;20312;-82
2021/12/05 10:45:32;;;;;;;;;;;;;;;7.10;87.47;99884.88;5070700;28;19943;-83
2021/12/05 10:48:01;;;;;;;;;;;;;;;7.12;87.12;99885.59;5072352;28;19932;-82
2021/12/05 10:50:28;;;;;;;;;;;;;;;7.17;87.44;99888.78;5070713;28;20307;-82
2021/12/05 10:53:09;;;;;;;;;;;;;;;7.24;86.95;99889.19;5072279;28;19928;-82
2021/12/05 10:55:36;;;;;;;;;;;;;;;7.29;87.15;99892.34;5067566;28;19933;-83
2021/12/05 10:58:03;;;;;;;;;;;;;;;7.29;85.67;99898.53;5072953;28;19933;-82
2021/12/05 11:00:30;;;;;;;;;;;;;;;7.26;86.08;99905.88;5068571;28;19932;-83
2021/12/05 11:03:11;;;;;;;;;;;;;;;7.28;85.87;99909.25;5070014;28;19932;-82
2021/12/05 11:05:39;;;;;;;;;;;;;;;7.38;86.76;99892.53;5070806;28;19931;-82
2021/12/05 11:08:26;;;;;;;;;;;;;;;7.50;87.31;99900.56;5068693;28;20449;-83
2021/12/05 11:11:05;;;;;;;;;;;;;;;7.59;86.91;99906.03;5070708;28;20381;-83
2021/12/05 11:13:31;;;;;;;;;;;;;;;7.71;87.66;99909.56;5068714;28;19932;-83
2021/12/05 11:15:58;;;;;;;;;;;;;;;7.76;86.35;99911.88;5068236;28;19932;-82
2021/12/05 11:18:43;;;;;;;;;;;;;;;7.76;86.00;99914.53;5065226;28;19935;-82
2021/12/05 11:21:30;;;;;;;;;;;;;;;7.78;85.66;99915.28;5067668;28;19981;-83
2021/12/05 11:24:11;;;;;;;;;;;;;;;7.82;85.78;99919.41;5069897;28;19975;-83
2021/12/05 11:26:38;;;;;;;;;;;;;;;7.88;85.96;99910.97;5066710;28;20303;-82
2021/12/05 11:29:05;;;;;;;;;;;;;;;7.90;85.74;99916.16;5070848;28;19944;-82
2021/12/05 11:31:34;;;;;;;;;;;;;;;7.89;85.44;99918.00;5068536;28;20292;-82
2021/12/05 11:34:00;;;;;;;;;;;;;;;7.87;84.70;99913.72;5068327;28;19955;-83
2021/12/05 11:36:30;;;;;;;;;;;;;;;7.84;84.54;99916.66;5066841;28;20330;-82
2021/12/05 11:38:59;;;;;;;;;;;;;;;7.82;84.58;99923.84;5065368;28;19985;-82
2021/12/05 11:41:26;;;;;;;;;;;;;;;7.83;83.76;99922.91;5065143;28;19924;-82
2021/12/05 11:43:53;;;;;;;;;;;;;;;7.85;85.03;99929.78;5067203;28;20394;-82
2021/12/05 11:46:22;;;;;;;;;;;;;;;7.94;84.70;99929.09;5066458;28;20007;-83
2021/12/05 11:48:50;;;;;;;;;;;;;;;7.99;84.63;99940.25;5064581;28;19932;-82
2021/12/05 11:51:28;;;;;;;;;;;;;;;8.12;85.87;99936.66;5071353;28;19932;-82
2021/12/05 11:53:58;;;;;;;;;;;;;;;8.17;85.11;99942.47;5070432;28;19932;-83
2021/12/05 11:56:37;;;;;;;;;;;;;;;8.17;84.57;99938.00;5069141;28;19938;-82
2021/12/05 11:59:09;;;;;;;;;;;;;;;8.12;83.01;99942.00;5071752;28;19932;-83
2021/12/05 12:01:37;;;;;;;;;;;;;;;8.11;84.19;99951.75;5062929;28;19983;-83
2021/12/05 12:04:04;;;;;;;;;;;;;;;8.16;84.48;99956.75;5068342;28;20019;-83
2021/12/05 12:06:30;;;;;;;;;;;;;;;8.24;84.43;99957.00;5064670;28;19938;-84
2021/12/05 12:08:58;;;;;;;;;;;;;;;8.31;83.67;99960.88;5067316;28;19932;-83
2021/12/05 12:11:25;;;;;;;;;;;;;;;8.38;83.63;99956.81;5066375;28;20403;-83
2021/12/05 12:13:53;;;;;;;;;;;;;;;8.44;83.57;99951.97;5068103;28;20359;-83
2021/12/05 12:16:21;;;;;;;;;;;;;;;8.46;83.38;99955.41;5070236;28;19932;-83
2021/12/05 12:18:49;;;;;;;;;;;;;;;8.52;84.19;99962.91;5067354;28;19939;-83
2021/12/05 12:21:19;;;;;;;;;;;;;;;8.58;84.46;99962.41;5062013;28;20015;-83
2021/12/05 12:23:46;;;;;;;;;;;;;;;8.64;84.51;99969.06;5066914;28;20039;-83
2021/12/05 12:26:14;;;;;;;;;;;;;;;8.61;83.07;99980.81;5066311;28;19929;-82
2021/12/05 12:28:40;;;;;;;;;;;;;;;8.56;81.74;99975.84;5068519;28;19925;-83
2021/12/05 12:31:09;;;;;;;;;;;;;;;8.48;81.29;99982.75;5066276;28;19928;-82
2021/12/05 12:33:37;;;;;;;;;;;;;;;8.48;81.92;99980.91;5061966;28;19928;-83
2021/12/05 12:36:04;;;;;;;;;;;;;;;8.46;82.98;99972.19;5068764;28;19954;-82
2021/12/05 12:38:35;;;;;;;;;;;;;;;8.52;81.58;99985.03;5064159;28;19928;-83
2021/12/05 12:41:03;;;;;;;;;;;;;;;8.52;81.59;99995.66;5069563;28;20407;-82
2021/12/05 12:43:48;;;;;;;;;;;;;;;8.52;81.96;99989.50;5066835;28;20014;-83
2021/12/05 12:46:23;;;;;;;;;;;;;;;8.54;82.94;100001.72;5065592;28;19934;-83
2021/12/05 12:48:50;;;;;;;;;;;;;;;8.54;81.15;100000.88;5065755;28;19939;-83
2021/12/05 12:51:27;;;;;;;;;;;;;;;8.53;81.21;100001.84;5066951;28;19932;-83
2021/12/05 12:53:55;;;;;;;;;;;;;;;8.46;81.13;100009.47;5067957;28;19932;-83
2021/12/05 12:56:23;;;;;;;;;;;;;;;8.46;81.73;100005.97;5066084;28;19924;-82
2021/12/05 12:58:54;;;;;;;;;;;;;;;8.45;81.56;100004.25;5066252;28;20638;-83
2021/12/05 13:01:37;;;;;;;;;;;;;;;8.45;80.33;100012.22;5066283;28;19948;-83
2021/12/05 13:12:34;;;;;;;;;;;;;;;8.40;79.95;100023.22;5063938;28;19995;-83
2021/12/05 13:15:04;;;;;;;;;;;;;;;8.32;79.53;100029.09;5065434;28;20486;-82
2021/12/05 13:17:37;;;;;;;;;;;;;;;8.29;79.91;100028.50;5070619;28;19938;-83
2021/12/05 13:20:04;;;;;;;;;;;;;;;8.32;80.81;100034.41;5071214;28;19928;-82
2021/12/05 13:22:31;;;;;;;;;;;;;;;8.41;80.92;100027.53;5068065;28;19939;-82
2021/12/05 13:25:05;;;;;;;;;;;;;;;8.51;82.06;100038.38;5074863;28;19938;-82
2021/12/05 13:27:32;;;;;;;;;;;;;;;8.60;81.52;100044.81;5072256;28;19955;-83
2021/12/05 13:29:59;;;;;;;;;;;;;;;8.65;81.62;100040.00;5075113;28;19988;-82
2021/12/05 13:32:29;;;;;;;;;;;;;;;8.68;81.77;100045.94;5071846;28;19924;-82
2021/12/05 13:34:58;;;;;;;;;;;;;;;8.71;81.60;100053.66;5071285;28;20525;-83
2021/12/05 13:37:42;;;;;;;;;;;;;;;8.73;81.76;100049.06;5070359;28;20350;-83
2021/12/05 13:40:17;;;;;;;;;;;;;;;8.71;80.93;100053.66;5069465;28;19930;-83
2021/12/05 13:42:46;;;;;;;;;;;;;;;8.70;80.34;100053.78;5072587;28;20288;-83
2021/12/05 13:45:17;;;;;;;;;;;;;;;8.64;79.45;100056.91;5072769;28;20320;-83
2021/12/05 13:47:47;;;;;;;;;;;;;;;8.61;79.77;100055.34;5073339;28;19932;-81
2021/12/05 13:50:34;;;;;;;;;;;;;;;8.62;80.89;100058.84;5071557;28;20013;-83
2021/12/05 13:53:16;;;;;;;;;;;;;;;8.56;78.37;100052.19;5068842;28;19928;-83
2021/12/05 13:55:43;;;;;;;;;;;;;;;8.50;78.96;100063.31;5070723;28;19936;-83
2021/12/05 13:58:21;;;;;;;;;;;;;;;8.47;79.31;100061.69;5069193;28;20028;-82
2021/12/05 14:00:51;;;;;;;;;;;;;;;8.50;79.82;100068.63;5075834;28;19928;-82
2021/12/05 14:03:32;;;;;;;;;;;;;;;8.53;80.36;100069.25;5070975;28;19951;-83
2021/12/05 14:06:01;;;;;;;;;;;;;;;8.53;79.43;100079.03;5072829;28;20466;-82
2021/12/05 14:08:27;;;;;;;;;;;;;;;8.56;80.31;100089.44;5066594;28;19940;-82
2021/12/05 14:10:54;;;;;;;;;;;;;;;8.60;80.59;100098.88;5060009;28;19938;-83
2021/12/05 14:13:21;;;;;;;;;;;;;;;8.65;80.56;100103.88;5073109;28;19987;-83
2021/12/05 14:15:56;;;;;;;;;;;;;;;8.67;79.88;100109.94;5073964;28;19928;-83
2021/12/05 14:18:23;;;;;;;;;;;;;;;8.63;79.70;100114.63;5071669;28;20102;-83
2021/12/05 14:20:50;;;;;;;;;;;;;;;8.61;78.76;100123.69;5061827;28;19939;-82
2021/12/05 14:23:21;;;;;;;;;;;;;;;8.58;78.76;100120.28;5066101;28;20031;-83
2021/12/05 14:25:50;;;;;;;;;;;;;;;8.60;79.87;100130.00;5068663;28;19939;-82
2021/12/05 14:28:17;;;;;;;;;;;;;;;8.63;79.64;100135.94;5069973;28;19928;-82
2021/12/05 14:30:45;;;;;;;;;;;;;;;8.64;79.33;100142.09;5068237;28;19924;-82
2021/12/05 14:33:11;;;;;;;;;;;;;;;8.61;78.71;100143.19;5068515;28;20001;-82
2021/12/05 14:35:39;;;;;;;;;;;;;;;8.57;78.52;100157.69;5067877;28;19933;-82
2021/12/05 14:38:06;;;;;;;;;;;;;;;8.54;78.66;100158.75;5068294;28;19940;-83
2021/12/05 14:40:35;;;;;;;;;;;;;;;8.54;78.77;100160.56;5066700;28;20072;-83
2021/12/05 14:43:04;;;;;;;;;;;;;;;8.55;78.90;100167.59;5068704;28;19933;-83
2021/12/05 14:45:32;;;;;;;;;;;;;;;8.51;78.93;100169.66;5065179;28;20404;-83
2021/12/05 14:48:02;;;;;;;;;;;;;;;8.51;78.54;100180.28;5070035;28;19932;-83
2021/12/05 14:50:31;;;;;;;;;;;;;;;8.47;77.93;100177.97;5066670;28;19932;-82
2021/12/05 14:53:00;;;;;;;;;;;;;;;8.46;78.26;100192.25;5072598;28;19933;-82
2021/12/05 14:55:28;;;;;;;;;;;;;;;8.48;78.41;100193.81;5069005;28;20299;-82
2021/12/05 14:57:58;;;;;;;;;;;;;;;8.45;78.08;100204.69;5068101;28;19948;-83
2021/12/05 15:00:27;;;;;;;;;;;;;;;8.41;78.87;100216.47;5067164;28;20007;-83
2021/12/05 15:02:59;;;;;;;;;;;;;;;8.37;79.24;100215.84;5068189;28;19933;-82
2021/12/05 15:05:25;;;;;;;;;;;;;;;8.26;79.18;100205.13;5066989;28;19935;-82
2021/12/05 15:07:59;;;;;;;;;;;;;;;8.37;79.00;100231.81;5068383;28;19928;-82
2021/12/05 15:10:25;;;;;;;;;;;;;;;8.36;77.91;100231.91;5069581;28;19939;-82
2021/12/05 15:12:53;;;;;;;;;;;;;;;8.34;78.56;100236.50;5066427;28;19928;-82
2021/12/05 15:15:22;;;;;;;;;;;;;;;8.32;79.00;100241.09;5068862;28;19925;-83
2021/12/05 15:17:48;;;;;;;;;;;;;;;8.30;78.96;100245.69;5070513;28;19930;-83
2021/12/05 15:20:16;;;;;;;;;;;;;;;8.28;78.97;100259.09;5069530;28;19939;-82
2021/12/05 15:22:43;;;;;;;;;;;;;;;8.27;78.04;100257.41;5069068;28;19934;-82
2021/12/05 15:25:11;;;;;;;;;;;;;;;8.25;78.04;100272.63;5067587;28;20311;-83
2021/12/05 15:27:37;;;;;;;;;;;;;;;8.25;78.00;100272.63;5067289;28;19972;-81
2021/12/05 15:30:06;;;;;;;;;;;;;;;8.24;78.57;100270.91;5070807;28;19950;-82
2021/12/05 15:32:34;;;;;;;;;;;;;;;8.24;78.46;100294.84;5069782;28;19932;-82
2021/12/05 15:35:02;;;;;;;;;;;;;;;8.25;79.36;100290.38;5067557;28;19935;-82
2021/12/05 15:37:29;;;;;;;;;;;;;;;8.24;78.87;100292.19;5062044;28;19938;-82
2021/12/05 15:39:57;;;;;;;;;;;;;;;8.25;78.24;100306.34;5067782;28;19939;-82
2021/12/05 15:42:25;;;;;;;;;;;;;;;8.25;78.41;100309.88;5067429;28;20562;-82
2021/12/05 15:44:53;;;;;;;;;;;;;;;8.28;78.41;100309.63;5069621;28;20011;-82
2021/12/05 15:47:21;;;;;;;;;;;;;;;8.27;78.63;100313.28;5064154;28;20315;-83
2021/12/05 15:49:52;;;;;;;;;;;;;;;8.29;78.37;100314.00;5069949;28;19923;-82
2021/12/05 15:52:22;;;;;;;;;;;;;;;8.31;78.78;100324.56;5064667;28;19928;-82
2021/12/05 15:54:48;;;;;;;;;;;;;;;8.32;78.65;100318.25;5067300;28;20371;-82
2021/12/05 15:57:18;;;;;;;;;;;;;;;8.32;78.97;100326.22;5066162;28;20616;-82
2021/12/05 15:59:46;;;;;;;;;;;;;;;8.33;78.60;100335.94;5069100;28;19966;-82
2021/12/05 16:02:12;;;;;;;;;;;;;;;8.31;79.56;100341.34;5067140;28;19939;-83
2021/12/05 16:04:40;;;;;;;;;;;;;;;8.31;79.40;100345.84;5067465;28;20058;-82
2021/12/05 16:07:10;;;;;;;;;;;;;;;8.31;79.68;100346.69;5068226;28;19933;-82
2021/12/05 16:09:37;;;;;;;;;;;;;;;8.32;78.91;100352.84;5066052;28;20036;-82
2021/12/05 16:12:09;;;;;;;;;;;;;;;8.32;78.96;100351.03;5070793;28;20024;-82
2021/12/05 16:14:36;;;;;;;;;;;;;;;8.33;79.86;100358.06;5066034;28;19932;-83
2021/12/05 16:17:13;;;;;;;;;;;;;;;8.34;78.98;100362.44;5068822;28;19935;-83
2021/12/05 16:19:39;;;;;;;;;;;;;;;8.33;79.89;100359.88;5068471;28;19931;-82
2021/12/05 16:22:08;;;;;;;;;;;;;;;8.30;79.13;100370.72;5068712;28;19932;-83
2021/12/05 16:24:40;;;;;;;;;;;;;;;8.26;78.72;100378.06;5065581;28;19932;-82
2021/12/05 16:27:06;;;;;;;;;;;;;;;8.25;78.70;100383.50;5066600;28;20351;-82
2021/12/05 16:29:33;;;;;;;;;;;;;;;8.23;78.79;100388.06;5066588;28;19995;-82
2021/12/05 16:32:00;;;;;;;;;;;;;;;8.21;78.64;100392.66;5065117;28;19928;-83
2021/12/05 16:34:27;;;;;;;;;;;;;;;8.18;79.53;100391.06;5067429;28;20043;-82
2021/12/05 16:36:56;;;;;;;;;;;;;;;8.12;78.74;100384.34;5070244;28;20058;-82
2021/12/05 16:39:28;;;;;;;;;;;;;;;8.08;79.10;100385.53;5066551;28;20376;-83
2021/12/05 16:41:58;;;;;;;;;;;;;;;8.07;78.77;100389.13;5071596;28;20309;-83
2021/12/05 16:44:25;;;;;;;;;;;;;;;8.04;79.03;100402.63;5070852;28;19928;-81
2021/12/05 16:46:55;;;;;;;;;;;;;;;7.96;78.42;100403.16;5068245;28;20850;-82
2021/12/05 16:49:23;;;;;;;;;;;;;;;7.93;79.66;100407.81;5070233;28;19936;-82
2021/12/05 16:51:50;;;;;;;;;;;;;;;7.92;79.86;100419.44;5069598;28;19932;-82
2021/12/05 16:54:20;;;;;;;;;;;;;;;7.92;79.67;100416.78;5068369;28;20015;-82
2021/12/05 16:56:49;;;;;;;;;;;;;;;7.90;79.43;100438.16;5064856;28;20240;-82
2021/12/05 16:59:19;;;;;;;;;;;;;;;7.89;79.58;100440.91;5068595;28;20032;-82
2021/12/05 17:01:47;;;;;;;;;;;;;;;7.88;79.70;100455.16;5066265;28;19925;-82
2021/12/05 17:04:14;;;;;;;;;;;;;;;7.85;78.79;100455.34;5071762;28;19938;-83
2021/12/05 17:06:45;;;;;;;;;;;;;;;7.80;79.01;100447.72;5068490;28;20030;-82
2021/12/05 17:09:12;;;;;;;;;;;;;;;7.73;79.25;100465.00;5073990;28;19972;-83
2021/12/05 17:11:38;;;;;;;;;;;;;;;7.74;79.51;100467.56;5077011;28;20018;-82
2021/12/05 17:14:05;;;;;;;;;;;;;;;7.74;79.46;100474.66;5079371;28;20003;-83
2021/12/05 17:16:39;;;;;;;;;;;;;;;7.75;79.39;100487.88;5075440;28;19935;-82
2021/12/05 17:19:08;;;;;;;;;;;;;;;7.77;79.68;100491.28;5074961;28;19932;-83
2021/12/05 17:21:36;;;;;;;;;;;;;;;7.76;79.21;100496.69;5074930;28;19959;-83